Time;durP1;ratioP1;P1;durP2;ratioP2;P2;SDS_P1;SDS_P2;PMS_P1;PMS_P2;Temp;Humidity;BMP_temperature;BMP_pressure;BME280_temperature;BME280_humidity;BME280_pressure;Samples;Min_cycle;Max_cycle;Signal;HPM_P1;HPM_P2
2022/03/28 00:00:38;;;;;;;;;;;;;;;17.53;46.07;102481.66;1034438;28;1086;-66
2022/03/28 00:01:29;;;;;;;;;;;;;;;17.52;46.02;102477.25;1032166;28;1144;-65
2022/03/28 00:02:19;;;;;;;;;;;;;;;17.52;46.43;102483.50;1032664;28;1091;-66
2022/03/28 00:03:11;;;;;;;;;;;;;;;17.51;46.65;102480.91;1034802;28;1119;-66
2022/03/28 00:04:01;;;;;;;;;;;;;;;17.51;46.22;102480.91;1034750;28;1167;-65
2022/03/28 00:04:52;;;;;;;;;;;;;;;17.50;46.12;102474.66;1034879;28;1086;-65
2022/03/28 00:05:42;;;;;;;;;;;;;;;17.49;46.55;102481.00;1034837;28;1098;-66
2022/03/28 00:06:33;;;;;;;;;;;;;;;17.49;46.82;102481.00;1035299;28;1400;-65
2022/03/28 00:07:23;;;;;;;;;;;;;;;17.48;46.70;102473.03;1033728;28;1107;-65
2022/03/28 00:08:13;;;;;;;;;;;;;;;17.49;46.20;102483.69;1033156;28;1207;-65
2022/03/28 00:09:05;;;;;;;;;;;;;;;17.47;46.01;102474.84;1035369;28;1162;-66
2022/03/28 00:09:56;;;;;;;;;;;;;;;17.49;46.44;102482.84;1034083;28;1139;-66
2022/03/28 00:10:46;;;;;;;;;;;;;;;17.48;46.04;102483.78;1032659;28;1087;-66
2022/03/28 00:11:37;;;;;;;;;;;;;;;17.46;46.42;102472.25;1033215;28;1080;-65
2022/03/28 00:12:27;;;;;;;;;;;;;;;17.46;46.30;102472.25;1035986;28;1139;-65
2022/03/28 00:13:18;;;;;;;;;;;;;;;17.45;46.66;102476.78;1032099;28;1163;-66
2022/03/28 00:14:08;;;;;;;;;;;;;;;17.46;46.14;102486.59;1034242;28;1214;-66
2022/03/28 00:14:58;;;;;;;;;;;;;;;17.46;46.06;102474.94;1034314;28;1088;-65
2022/03/28 00:15:49;;;;;;;;;;;;;;;17.44;46.14;102475.06;1036149;28;1091;-65
2022/03/28 00:16:39;;;;;;;;;;;;;;;17.45;45.94;102476.78;1035682;28;1413;-65
2022/03/28 00:17:31;;;;;;;;;;;;;;;17.44;46.44;102468.78;1035547;28;1128;-65
2022/03/28 00:18:22;;;;;;;;;;;;;;;17.45;45.75;102471.38;1033825;28;1104;-65
2022/03/28 00:19:12;;;;;;;;;;;;;;;17.44;45.72;102464.28;1035365;28;1957;-65
2022/03/28 00:20:03;;;;;;;;;;;;;;;17.43;46.09;102470.63;1032215;28;1146;-66
2022/03/28 00:20:54;;;;;;;;;;;;;;;17.42;46.45;102466.19;1031975;28;1083;-66
2022/03/28 00:21:44;;;;;;;;;;;;;;;17.43;46.21;102462.53;1035417;28;1100;-66
2022/03/28 00:22:34;;;;;;;;;;;;;;;17.42;45.80;102468.03;1034544;28;1119;-66
2022/03/28 00:23:25;;;;;;;;;;;;;;;17.40;46.67;102470.81;1033254;28;1170;-66
2022/03/28 00:24:15;;;;;;;;;;;;;;;17.40;46.03;102462.75;1032853;28;1091;-65
2022/03/28 00:25:06;;;;;;;;;;;;;;;17.41;46.60;102467.16;1035535;28;1100;-66
2022/03/28 00:25:56;;;;;;;;;;;;;;;17.40;46.15;102457.34;1034799;28;1158;-66
2022/03/28 00:26:47;;;;;;;;;;;;;;;17.41;46.09;102464.47;1033386;28;1079;-66
2022/03/28 00:27:37;;;;;;;;;;;;;;;17.40;46.46;102461.88;1033613;28;1108;-66
2022/03/28 00:28:28;;;;;;;;;;;;;;;17.40;46.02;102453.78;1036847;28;1104;-65
2022/03/28 00:29:18;;;;;;;;;;;;;;;17.40;46.23;102446.56;1032773;28;1265;-64
2022/03/28 00:30:09;;;;;;;;;;;;;;;17.39;46.54;102450.25;1032392;28;797;-64
2022/03/28 00:30:59;;;;;;;;;;;;;;;17.37;45.74;102441.41;1033569;28;625;-64
2022/03/28 00:31:50;;;;;;;;;;;;;;;17.38;46.39;102442.28;1033546;28;630;-65
2022/03/28 00:32:40;;;;;;;;;;;;;;;17.38;46.38;102445.81;1033519;28;661;-65
2022/03/28 00:33:31;;;;;;;;;;;;;;;17.37;46.48;102430.63;1032467;28;713;-65
2022/03/28 00:34:23;;;;;;;;;;;;;;;17.37;46.28;102437.88;1033569;28;630;-64
2022/03/28 00:35:13;;;;;;;;;;;;;;;17.37;46.46;102438.72;1032984;28;650;-65
2022/03/28 00:36:03;;;;;;;;;;;;;;;17.35;46.19;102436.13;1032309;28;623;-65
2022/03/28 00:36:54;;;;;;;;;;;;;;;17.35;45.97;102430.75;1036518;28;658;-65
2022/03/28 00:37:44;;;;;;;;;;;;;;;17.35;45.85;102437.97;1036820;28;634;-65
2022/03/28 00:38:35;;;;;;;;;;;;;;;17.34;46.07;102441.63;1036515;28;626;-65
2022/03/28 00:39:25;;;;;;;;;;;;;;;17.34;45.96;102436.22;1036158;28;1889;-65
2022/03/28 00:40:17;;;;;;;;;;;;;;;17.34;46.29;102428.16;1036067;28;1178;-64
2022/03/28 00:41:07;;;;;;;;;;;;;;;17.33;46.14;102439.91;1032719;28;1180;-65
2022/03/28 00:41:58;;;;;;;;;;;;;;;17.34;45.78;102433.53;1035222;28;1228;-64
2022/03/28 00:42:48;;;;;;;;;;;;;;;17.32;45.92;102435.47;1034603;28;1103;-65
2022/03/28 00:43:39;;;;;;;;;;;;;;;17.32;45.81;102436.34;1032992;28;1103;-65
2022/03/28 00:44:30;;;;;;;;;;;;;;;17.33;46.22;102435.38;1033581;28;1119;-65
2022/03/28 00:45:20;;;;;;;;;;;;;;;17.31;46.25;102437.31;1035555;28;1287;-65
2022/03/28 00:46:10;;;;;;;;;;;;;;;17.32;46.01;102430.94;1034814;28;1102;-65
2022/03/28 00:47:01;;;;;;;;;;;;;;;17.31;45.97;102434.59;1035541;28;1127;-65
2022/03/28 00:47:51;;;;;;;;;;;;;;;17.30;46.22;102424.78;1035773;28;1164;-65
2022/03/28 00:48:42;;;;;;;;;;;;;;;17.31;45.99;102428.34;1036271;28;1214;-65
2022/03/28 00:49:33;;;;;;;;;;;;;;;17.30;45.80;102429.31;1035241;28;1185;-65
2022/03/28 00:50:23;;;;;;;;;;;;;;;17.31;46.06;102425.66;1036597;28;1242;-65
2022/03/28 00:51:13;;;;;;;;;;;;;;;17.30;46.27;102430.19;1036293;28;1188;-65
2022/03/28 00:52:04;;;;;;;;;;;;;;;17.29;45.97;102422.19;1035727;28;1092;-65
2022/03/28 00:52:55;;;;;;;;;;;;;;;17.29;46.24;102432.97;1036213;28;1274;-65
2022/03/28 00:53:45;;;;;;;;;;;;;;;17.28;45.99;102421.34;1035755;28;1258;-65
2022/03/28 00:54:35;;;;;;;;;;;;;;;17.29;46.24;102427.59;1036230;28;1286;-66
2022/03/28 00:55:26;;;;;;;;;;;;;;;17.28;46.02;102426.72;1035882;28;1227;-65
2022/03/28 00:56:16;;;;;;;;;;;;;;;17.28;45.98;102428.56;1033391;28;1180;-65
2022/03/28 00:57:07;;;;;;;;;;;;;;;17.27;46.32;102425.00;1035964;28;1138;-65
2022/03/28 00:57:58;;;;;;;;;;;;;;;17.28;46.34;102423.16;1034046;28;1079;-65
2022/03/28 00:58:48;;;;;;;;;;;;;;;17.27;46.12;102425.00;1033170;28;1118;-65
2022/03/28 00:59:39;;;;;;;;;;;;;;;17.27;45.91;102424.13;1034272;28;1408;-65
2022/03/28 01:00:29;;;;;;;;;;;;;;;17.25;45.97;102420.69;1035858;28;1380;-66
2022/03/28 01:01:19;;;;;;;;;;;;;;;17.24;46.12;102425.19;1036151;28;1176;-65
2022/03/28 01:02:10;;;;;;;;;;;;;;;17.24;45.87;102417.13;1034557;28;1180;-65
2022/03/28 01:03:01;;;;;;;;;;;;;;;17.25;46.37;102420.69;1033025;28;1139;-65
2022/03/28 01:03:51;;;;;;;;;;;;;;;17.24;46.22;102422.50;1032697;28;1079;-65
2022/03/28 01:04:42;;;;;;;;;;;;;;;17.24;46.52;102417.13;1033424;28;1214;-65
2022/03/28 01:05:32;;;;;;;;;;;;;;;17.25;46.44;102420.69;1032854;28;1111;-65
2022/03/28 01:06:23;;;;;;;;;;;;;;;17.23;45.99;102417.22;1032795;28;1091;-66
2022/03/28 01:07:13;;;;;;;;;;;;;;;17.24;45.87;102417.13;1032887;28;1111;-66
2022/03/28 01:08:04;;;;;;;;;;;;;;;17.23;46.48;102417.22;1033292;28;1084;-65
2022/03/28 01:08:54;;;;;;;;;;;;;;;17.22;45.73;102420.88;1036085;28;1114;-65
2022/03/28 01:09:44;;;;;;;;;;;;;;;17.21;45.62;102420.00;1036769;28;642;-65
2022/03/28 01:10:35;;;;;;;;;;;;;;;17.22;45.60;102419.06;1035830;28;704;-65
2022/03/28 01:11:26;;;;;;;;;;;;;;;17.22;45.54;102418.19;1036928;28;625;-64
2022/03/28 01:12:16;;;;;;;;;;;;;;;17.23;46.10;102422.59;1035469;28;708;-65
2022/03/28 01:13:06;;;;;;;;;;;;;;;17.21;45.68;102417.31;1036768;28;562;-65
2022/03/28 01:13:57;;;;;;;;;;;;;;;17.21;45.82;102411.06;1036872;28;574;-65
2022/03/28 01:14:47;;;;;;;;;;;;;;;17.22;46.19;102410.09;1035535;28;638;-64
2022/03/28 01:15:38;;;;;;;;;;;;;;;17.21;45.74;102414.63;1035372;28;1221;-64
2022/03/28 01:16:28;;;;;;;;;;;;;;;17.20;45.67;102412.91;1033075;28;1218;-64
2022/03/28 01:18:28;;;;;;;;;;;;;;;17.20;46.02;102409.34;1034765;28;1309;-65
2022/03/28 01:19:18;;;;;;;;;;;;;;;17.19;45.98;102404.94;1034786;28;1928;-64
2022/03/28 01:20:09;;;;;;;;;;;;;;;17.19;46.12;102400.44;1032745;28;1224;-64
2022/03/28 01:20:59;;;;;;;;;;;;;;;17.18;46.26;102398.69;1036754;28;637;-64
2022/03/28 01:21:50;;;;;;;;;;;;;;;17.18;45.60;102403.22;1036219;28;657;-64
2022/03/28 01:22:40;;;;;;;;;;;;;;;17.18;45.98;102396.00;1036780;28;681;-63
2022/03/28 01:23:31;;;;;;;;;;;;;;;17.18;45.76;102395.13;1036136;28;650;-64
2022/03/28 01:24:21;;;;;;;;;;;;;;;17.18;45.99;102404.09;1036381;28;638;-63
2022/03/28 01:25:12;;;;;;;;;;;;;;;17.17;45.76;102396.97;1036158;28;697;-63
2022/03/28 01:26:02;;;;;;;;;;;;;;;17.16;45.89;102395.25;1036385;28;665;-63
2022/03/28 01:26:52;;;;;;;;;;;;;;;17.16;45.95;102395.25;1035517;28;1496;-64
2022/03/28 01:27:43;;;;;;;;;;;;;;;17.16;46.42;102399.75;1036237;28;709;-64
2022/03/28 01:28:33;;;;;;;;;;;;;;;17.15;45.52;102393.50;1036685;28;657;-64
2022/03/28 01:29:24;;;;;;;;;;;;;;;17.15;46.04;102392.66;1036215;28;686;-64
2022/03/28 01:30:14;;;;;;;;;;;;;;;17.14;46.37;102390.91;1036444;28;645;-64
2022/03/28 01:31:04;;;;;;;;;;;;;;;17.15;45.63;102384.56;1036170;28;653;-64
2022/03/28 01:31:55;;;;;;;;;;;;;;;17.14;46.03;102381.00;1036179;28;657;-64
2022/03/28 01:32:46;;;;;;;;;;;;;;;17.14;45.94;102386.41;1036118;28;817;-64
2022/03/28 01:33:36;;;;;;;;;;;;;;;17.14;45.77;102385.53;1036152;28;655;-63
2022/03/28 01:34:27;;;;;;;;;;;;;;;17.13;46.07;102373.91;1036268;28;724;-64
2022/03/28 01:35:17;;;;;;;;;;;;;;;17.13;45.73;102383.81;1036075;28;584;-64
2022/03/28 01:36:08;;;;;;;;;;;;;;;17.12;45.54;102374.00;1036162;28;681;-64
2022/03/28 01:36:58;;;;;;;;;;;;;;;17.13;45.87;102378.41;1036101;28;1539;-64
2022/03/28 01:37:48;;;;;;;;;;;;;;;17.12;45.86;102374.00;1036073;28;819;-65
2022/03/28 01:38:39;;;;;;;;;;;;;;;17.11;45.72;102383.91;1036256;28;681;-65
2022/03/28 01:39:29;;;;;;;;;;;;;;;17.12;45.65;102371.31;1036049;28;1964;-64
2022/03/28 01:40:20;;;;;;;;;;;;;;;17.10;45.83;102367.84;1036248;28;705;-64
2022/03/28 01:41:10;;;;;;;;;;;;;;;17.09;45.77;102369.69;1035386;28;1563;-64
2022/03/28 01:42:01;;;;;;;;;;;;;;;17.09;45.86;102371.50;1036063;28;634;-64
2022/03/28 01:42:51;;;;;;;;;;;;;;;17.09;45.79;102377.75;1036249;28;700;-64
2022/03/28 01:43:42;;;;;;;;;;;;;;;17.09;46.05;102382.28;1036131;28;713;-64
2022/03/28 01:44:32;;;;;;;;;;;;;;;17.09;45.87;102374.19;1036308;28;598;-64
2022/03/28 01:45:22;;;;;;;;;;;;;;;17.08;46.10;102378.72;1036126;28;622;-64
2022/03/28 01:46:13;;;;;;;;;;;;;;;17.08;45.84;102376.03;1036121;28;676;-64
2022/03/28 01:47:03;;;;;;;;;;;;;;;17.08;46.27;102373.34;1032544;28;1353;-65
2022/03/28 01:47:54;;;;;;;;;;;;;;;17.07;45.62;102378.81;1032622;28;630;-65
2022/03/28 01:48:44;;;;;;;;;;;;;;;17.08;46.25;102377.84;1033923;28;1543;-65
2022/03/28 01:49:35;;;;;;;;;;;;;;;17.08;45.98;102380.53;1036088;28;627;-65
2022/03/28 01:50:25;;;;;;;;;;;;;;;17.06;45.84;102372.56;1036190;28;588;-65
2022/03/28 01:51:16;;;;;;;;;;;;;;;17.06;45.81;102377.09;1032588;28;625;-65
2022/03/28 01:52:06;;;;;;;;;;;;;;;17.05;45.78;102375.38;1032152;28;717;-65
2022/03/28 01:52:56;;;;;;;;;;;;;;;17.06;45.77;102377.09;1031363;28;685;-66
2022/03/28 01:53:47;;;;;;;;;;;;;;;17.05;45.69;102373.53;1032192;28;709;-65
2022/03/28 01:54:37;;;;;;;;;;;;;;;17.05;46.12;102373.53;1032128;28;642;-66
2022/03/28 01:55:28;;;;;;;;;;;;;;;17.05;45.93;102375.38;1032104;28;697;-65
2022/03/28 01:56:18;;;;;;;;;;;;;;;17.04;46.06;102377.19;1032078;28;627;-66
2022/03/28 01:57:08;;;;;;;;;;;;;;;17.04;45.80;102368.25;1033210;28;618;-66
2022/03/28 01:57:59;;;;;;;;;;;;;;;17.04;46.03;102368.25;1032020;28;685;-66
2022/03/28 01:58:49;;;;;;;;;;;;;;;17.05;45.61;102369.97;1032499;28;663;-66
2022/03/28 01:59:40;;;;;;;;;;;;;;;17.04;45.93;102369.13;1032043;28;694;-66
2022/03/28 02:00:32;;;;;;;;;;;;;;;17.02;45.73;102369.22;1032191;28;718;-65
2022/03/28 02:01:22;;;;;;;;;;;;;;;17.04;45.80;102368.25;1031950;28;551;-65
2022/03/28 02:02:13;;;;;;;;;;;;;;;17.04;45.56;102370.94;1032115;28;681;-65
2022/03/28 02:03:03;;;;;;;;;;;;;;;17.02;46.00;102371.91;1032439;28;556;-65
2022/03/28 02:03:54;;;;;;;;;;;;;;;17.02;45.78;102373.75;1032075;28;678;-66
2022/03/28 02:04:44;;;;;;;;;;;;;;;17.02;45.79;102367.53;1032274;28;700;-66
2022/03/28 02:05:35;;;;;;;;;;;;;;;17.02;45.65;102364.81;1032050;28;694;-66
2022/03/28 02:06:25;;;;;;;;;;;;;;;17.00;45.54;102362.22;1032102;28;590;-66
2022/03/28 02:07:17;;;;;;;;;;;;;;;17.00;45.91;102360.41;1035888;28;653;-65
2022/03/28 02:08:09;;;;;;;;;;;;;;;17.00;45.80;102368.50;1036569;28;697;-65
2022/03/28 02:08:59;;;;;;;;;;;;;;;17.00;45.78;102352.31;1035576;28;1547;-66
2022/03/28 02:09:50;;;;;;;;;;;;;;;16.99;45.80;102358.69;1036057;28;697;-65
2022/03/28 02:10:41;;;;;;;;;;;;;;;17.00;45.64;102359.53;1036641;28;725;-65
2022/03/28 02:11:31;;;;;;;;;;;;;;;16.99;46.09;102357.81;1036663;28;602;-65
2022/03/28 02:12:21;;;;;;;;;;;;;;;16.98;45.65;102354.25;1032203;28;653;-65
2022/03/28 02:13:12;;;;;;;;;;;;;;;16.99;45.83;102355.13;1032763;28;1148;-66
2022/03/28 02:14:02;;;;;;;;;;;;;;;16.97;45.81;102355.22;1036497;28;728;-65
2022/03/28 02:14:53;;;;;;;;;;;;;;;16.97;45.76;102357.91;1036544;28;682;-65
2022/03/28 02:15:43;;;;;;;;;;;;;;;16.97;46.02;102355.22;1036658;28;669;-65
2022/03/28 02:16:33;;;;;;;;;;;;;;;16.97;45.87;102347.16;1036574;28;642;-65
2022/03/28 02:17:24;;;;;;;;;;;;;;;16.97;45.83;102344.44;1032560;28;661;-65
2022/03/28 02:18:14;;;;;;;;;;;;;;;16.94;45.90;102347.34;1032472;28;568;-65
2022/03/28 02:19:05;;;;;;;;;;;;;;;16.95;45.69;102343.69;1032520;28;622;-65
2022/03/28 02:19:55;;;;;;;;;;;;;;;16.96;45.65;102344.56;1032615;28;704;-66
2022/03/28 02:20:45;;;;;;;;;;;;;;;16.95;45.62;102343.69;1032452;28;622;-65
2022/03/28 02:21:36;;;;;;;;;;;;;;;16.96;45.83;102344.56;1032483;28;670;-65
2022/03/28 02:22:26;;;;;;;;;;;;;;;16.93;45.27;102334.84;1032405;28;706;-66
2022/03/28 02:23:17;;;;;;;;;;;;;;;16.93;45.70;102334.84;1032546;28;646;-66
2022/03/28 02:24:07;;;;;;;;;;;;;;;16.93;45.28;102326.75;1032616;28;657;-65
2022/03/28 02:24:57;;;;;;;;;;;;;;;16.93;45.95;102332.16;1031424;28;639;-66
2022/03/28 02:25:48;;;;;;;;;;;;;;;16.92;45.82;102327.72;1031997;28;736;-65
2022/03/28 02:26:38;;;;;;;;;;;;;;;16.91;45.46;102331.38;1031813;28;697;-66
2022/03/28 02:27:29;;;;;;;;;;;;;;;16.90;45.50;102326.97;1031948;28;581;-66
2022/03/28 02:28:19;;;;;;;;;;;;;;;16.90;45.80;102321.59;1032019;28;658;-65
2022/03/28 02:29:10;;;;;;;;;;;;;;;16.91;45.77;102326.00;1032389;28;693;-65
2022/03/28 02:30:00;;;;;;;;;;;;;;;16.90;45.64;102324.28;1032035;28;642;-65
2022/03/28 02:30:50;;;;;;;;;;;;;;;16.91;45.46;102330.53;1031826;28;667;-65
2022/03/28 02:31:41;;;;;;;;;;;;;;;16.90;45.60;102329.66;1032116;28;721;-65
2022/03/28 02:32:31;;;;;;;;;;;;;;;16.91;45.66;102326.00;1031726;28;658;-65
2022/03/28 02:33:22;;;;;;;;;;;;;;;16.90;45.51;102332.34;1031899;28;627;-65
2022/03/28 02:34:12;;;;;;;;;;;;;;;16.90;45.71;102328.78;1031893;28;682;-65
2022/03/28 02:35:02;;;;;;;;;;;;;;;16.90;45.23;102321.59;1032087;28;1551;-65
2022/03/28 02:35:53;;;;;;;;;;;;;;;16.89;45.30;102330.63;1036070;28;724;-65
2022/03/28 02:36:43;;;;;;;;;;;;;;;16.89;45.43;102327.94;1036440;28;543;-65
2022/03/28 02:37:34;;;;;;;;;;;;;;;16.88;45.80;102320.81;1036470;28;666;-65
2022/03/28 02:38:24;;;;;;;;;;;;;;;16.88;45.66;102323.50;1036515;28;657;-65
2022/03/28 02:39:15;;;;;;;;;;;;;;;16.89;45.51;102324.38;1035878;28;1894;-64
2022/03/28 02:40:05;;;;;;;;;;;;;;;16.87;45.14;102321.78;1036584;28;827;-65
2022/03/28 02:40:56;;;;;;;;;;;;;;;16.87;45.62;102324.47;1035967;28;614;-65
2022/03/28 02:41:46;;;;;;;;;;;;;;;16.86;45.63;102317.38;1036568;28;658;-65
2022/03/28 02:42:37;;;;;;;;;;;;;;;16.86;45.42;102320.06;1032004;28;749;-65
2022/03/28 02:43:27;;;;;;;;;;;;;;;16.87;45.65;102318.22;1032641;28;642;-65
2022/03/28 02:44:17;;;;;;;;;;;;;;;16.87;45.55;102315.53;1036065;28;634;-65
2022/03/28 02:45:08;;;;;;;;;;;;;;;16.85;45.70;102315.63;1036359;28;1524;-65
2022/03/28 02:45:58;;;;;;;;;;;;;;;16.86;45.61;102317.38;1036400;28;613;-65
2022/03/28 02:46:49;;;;;;;;;;;;;;;16.85;45.61;102320.16;1035873;28;638;-65
2022/03/28 02:47:39;;;;;;;;;;;;;;;16.84;45.37;102313.91;1032717;28;713;-65
2022/03/28 02:48:30;;;;;;;;;;;;;;;16.83;45.56;102317.59;1028601;28;697;-64
2022/03/28 02:49:20;;;;;;;;;;;;;;;16.83;45.50;102306.84;1032545;28;728;-64
2022/03/28 02:50:10;;;;;;;;;;;;;;;16.84;45.40;102311.22;1035346;28;613;-64
2022/03/28 02:51:01;;;;;;;;;;;;;;;16.84;45.41;102308.53;1031927;28;776;-64
2022/03/28 02:51:51;;;;;;;;;;;;;;;16.83;45.70;102301.44;1031791;28;651;-64
2022/03/28 02:52:42;;;;;;;;;;;;;;;16.83;45.27;102306.84;1032346;28;629;-65
2022/03/28 02:53:32;;;;;;;;;;;;;;;16.82;45.65;102304.25;1032420;28;736;-64
2022/03/28 02:54:23;;;;;;;;;;;;;;;16.81;45.84;102298.00;1031744;28;614;-64
2022/03/28 02:55:14;;;;;;;;;;;;;;;16.81;45.54;102303.38;1032910;28;1547;-64
2022/03/28 02:56:04;;;;;;;;;;;;;;;16.82;45.24;102299.72;1036044;28;666;-64
2022/03/28 02:56:55;;;;;;;;;;;;;;;16.81;45.94;102303.38;1035803;28;649;-64
2022/03/28 02:57:45;;;;;;;;;;;;;;;16.81;45.65;102305.19;1036009;28;662;-64
2022/03/28 02:58:35;;;;;;;;;;;;;;;16.80;45.12;102304.34;1035835;28;809;-64
2022/03/28 02:59:26;;;;;;;;;;;;;;;16.80;45.67;102300.78;1036416;28;1977;-64
2022/03/28 03:00:16;;;;;;;;;;;;;;;16.79;45.21;102305.31;1036328;28;708;-64
2022/03/28 03:01:07;;;;;;;;;;;;;;;16.78;45.51;102292.81;1035756;28;744;-65
2022/03/28 03:01:57;;;;;;;;;;;;;;;16.80;45.28;102300.78;1036049;28;650;-65
2022/03/28 03:02:48;;;;;;;;;;;;;;;16.79;45.25;102294.53;1035888;28;696;-65
2022/03/28 03:03:38;;;;;;;;;;;;;;;16.76;45.50;102294.75;1035967;28;693;-65
2022/03/28 03:04:28;;;;;;;;;;;;;;;16.78;45.50;102298.19;1035732;28;630;-65
2022/03/28 03:05:19;;;;;;;;;;;;;;;16.77;45.50;102293.78;1035606;28;1583;-65
2022/03/28 03:06:09;;;;;;;;;;;;;;;16.77;45.39;102288.38;1036005;28;700;-65
2022/03/28 03:07:00;;;;;;;;;;;;;;;16.75;45.31;102293.00;1035818;28;669;-66
2022/03/28 03:07:50;;;;;;;;;;;;;;;16.78;45.32;102290.13;1035969;28;642;-66
2022/03/28 03:08:41;;;;;;;;;;;;;;;16.78;45.47;102289.25;1035753;28;547;-66
2022/03/28 03:09:31;;;;;;;;;;;;;;;16.76;45.12;102288.50;1035925;28;726;-65
2022/03/28 03:10:22;;;;;;;;;;;;;;;16.76;45.44;102283.97;1035740;28;646;-66
2022/03/28 03:11:12;;;;;;;;;;;;;;;16.75;45.63;102287.63;1035983;28;724;-65
2022/03/28 03:12:02;;;;;;;;;;;;;;;16.75;45.04;102293.00;1036367;28;637;-65
2022/03/28 03:12:53;;;;;;;;;;;;;;;16.74;45.22;102282.34;1035839;28;622;-65
2022/03/28 03:13:43;;;;;;;;;;;;;;;16.74;45.43;102288.59;1036864;28;645;-65
2022/03/28 03:14:34;;;;;;;;;;;;;;;16.75;45.26;102292.16;1035697;28;642;-64
2022/03/28 03:15:24;;;;;;;;;;;;;;;16.74;45.42;102283.22;1035650;28;1496;-64
2022/03/28 03:16:15;;;;;;;;;;;;;;;16.73;45.37;102289.56;1035702;28;829;-65
2022/03/28 03:17:06;;;;;;;;;;;;;;;16.73;45.40;102283.31;1035677;28;1528;-65
2022/03/28 03:17:56;;;;;;;;;;;;;;;16.72;45.34;102286.97;1035884;28;629;-65
2022/03/28 03:18:47;;;;;;;;;;;;;;;16.73;45.63;102286.00;1035151;28;639;-65
2022/03/28 03:19:39;;;;;;;;;;;;;;;16.72;45.36;102279.75;1035777;28;1910;-65
2022/03/28 03:20:30;;;;;;;;;;;;;;;16.73;45.44;102280.63;1035742;28;697;-65
2022/03/28 03:21:20;;;;;;;;;;;;;;;16.73;45.55;102283.31;1035839;28;725;-65
2022/03/28 03:22:11;;;;;;;;;;;;;;;16.72;45.55;102284.28;1035776;28;702;-65
2022/03/28 03:23:01;;;;;;;;;;;;;;;16.72;45.50;102273.50;1035907;28;634;-65
2022/03/28 03:23:52;;;;;;;;;;;;;;;16.72;45.40;102287.84;1035792;28;575;-65
2022/03/28 03:24:42;;;;;;;;;;;;;;;16.71;45.56;102286.09;1035907;28;662;-65
2022/03/28 03:25:33;;;;;;;;;;;;;;;16.72;45.54;102278.88;1035582;28;1503;-65
2022/03/28 03:26:23;;;;;;;;;;;;;;;16.71;45.15;102280.72;1035826;28;705;-64
2022/03/28 03:27:14;;;;;;;;;;;;;;;16.70;45.56;102289.75;1035775;28;622;-65
2022/03/28 03:28:04;;;;;;;;;;;;;;;16.70;45.29;102279.00;1035883;28;653;-65
2022/03/28 03:28:55;;;;;;;;;;;;;;;16.70;45.08;102275.44;1035703;28;634;-65
2022/03/28 03:29:47;;;;;;;;;;;;;;;16.68;45.43;102278.22;1035238;28;708;-66
2022/03/28 03:30:37;;;;;;;;;;;;;;;16.68;45.29;102280.91;1034955;28;634;-66
2022/03/28 03:31:28;;;;;;;;;;;;;;;16.69;45.09;102271.88;1035818;28;680;-65
2022/03/28 03:32:18;;;;;;;;;;;;;;;16.69;45.71;102271.00;1035930;28;728;-65
2022/03/28 03:33:09;;;;;;;;;;;;;;;16.70;45.27;102272.75;1035792;28;706;-65
2022/03/28 03:33:59;;;;;;;;;;;;;;;16.67;45.43;102274.69;1035068;28;689;-65
2022/03/28 03:34:51;;;;;;;;;;;;;;;16.66;45.37;102266.69;1035748;28;704;-65
2022/03/28 03:35:42;;;;;;;;;;;;;;;16.67;45.27;102273.81;1033690;28;1667;-66
2022/03/28 03:36:32;;;;;;;;;;;;;;;16.66;45.32;102272.09;1035830;28;646;-66
2022/03/28 03:37:23;;;;;;;;;;;;;;;16.66;45.25;102278.34;1035269;28;607;-65
2022/03/28 03:38:13;;;;;;;;;;;;;;;16.66;45.30;102269.41;1035891;28;657;-65
2022/03/28 03:39:04;;;;;;;;;;;;;;;16.65;45.35;102273.94;1036271;28;648;-66
2022/03/28 03:39:54;;;;;;;;;;;;;;;16.65;45.32;102267.69;1035860;28;748;-65
2022/03/28 03:40:44;;;;;;;;;;;;;;;16.65;45.41;102275.78;1036223;28;692;-66
2022/03/28 03:41:35;;;;;;;;;;;;;;;16.64;45.36;102274.03;1035789;28;616;-65
2022/03/28 03:42:25;;;;;;;;;;;;;;;16.65;45.24;102270.38;1036014;28;646;-65
2022/03/28 03:43:16;;;;;;;;;;;;;;;16.63;45.48;102267.81;1035515;28;1137;-66
2022/03/28 03:44:06;;;;;;;;;;;;;;;16.61;45.43;102272.38;1035967;28;731;-65
2022/03/28 03:44:58;;;;;;;;;;;;;;;16.60;45.29;102269.78;1035631;28;662;-65
2022/03/28 03:45:48;;;;;;;;;;;;;;;16.61;45.25;102264.31;1032191;28;1452;-65
2022/03/28 03:46:39;;;;;;;;;;;;;;;16.62;45.28;102270.56;1031580;28;643;-65
2022/03/28 03:47:29;;;;;;;;;;;;;;;16.61;45.05;102274.22;1032316;28;650;-65
2022/03/28 03:48:20;;;;;;;;;;;;;;;16.61;45.07;102269.69;1032174;28;639;-65
2022/03/28 03:49:10;;;;;;;;;;;;;;;16.61;45.46;102269.69;1032264;28;935;-65
2022/03/28 03:50:00;;;;;;;;;;;;;;;16.61;45.34;102274.22;1032223;28;599;-65
2022/03/28 03:50:51;;;;;;;;;;;;;;;16.62;45.18;102270.56;1034775;28;1256;-65
2022/03/28 03:51:41;;;;;;;;;;;;;;;16.60;45.19;102267.09;1035715;28;654;-65
2022/03/28 03:52:32;;;;;;;;;;;;;;;16.61;45.33;102267.00;1035639;28;658;-65
2022/03/28 03:53:22;;;;;;;;;;;;;;;16.59;45.16;102266.25;1036287;28;662;-65
2022/03/28 03:54:13;;;;;;;;;;;;;;;16.59;45.08;102260.84;1032500;28;598;-65
2022/03/28 03:55:03;;;;;;;;;;;;;;;16.59;44.90;102268.06;1031711;28;1497;-65
2022/03/28 03:55:53;;;;;;;;;;;;;;;16.58;45.11;102258.28;1033682;28;606;-65
2022/03/28 03:56:44;;;;;;;;;;;;;;;16.58;45.26;102260.97;1032435;28;705;-65
2022/03/28 03:57:34;;;;;;;;;;;;;;;16.57;45.12;102268.16;1032481;28;678;-65
2022/03/28 03:58:25;;;;;;;;;;;;;;;16.58;45.32;102266.34;1032474;28;693;-65
2022/03/28 03:59:16;;;;;;;;;;;;;;;16.57;45.15;102270.00;1032396;28;1902;-65
2022/03/28 04:00:06;;;;;;;;;;;;;;;16.57;45.29;102268.16;1032585;28;709;-65
2022/03/28 04:00:57;;;;;;;;;;;;;;;16.57;45.26;102270.84;1032384;28;709;-65
2022/03/28 04:01:47;;;;;;;;;;;;;;;16.58;45.33;102269.03;1032515;28;681;-65
2022/03/28 04:02:37;;;;;;;;;;;;;;;16.57;45.12;102261.91;1032370;28;706;-65
2022/03/28 04:03:28;;;;;;;;;;;;;;;16.55;45.24;102266.53;1032545;28;559;-65
2022/03/28 04:04:18;;;;;;;;;;;;;;;16.55;45.02;102264.72;1032644;28;618;-65
2022/03/28 04:05:09;;;;;;;;;;;;;;;16.53;45.17;102263.09;1036957;28;1277;-65
2022/03/28 04:05:59;;;;;;;;;;;;;;;16.54;45.00;102270.19;1036535;28;630;-65
2022/03/28 04:06:50;;;;;;;;;;;;;;;16.52;45.11;102270.31;1036373;28;581;-65
2022/03/28 04:07:40;;;;;;;;;;;;;;;16.54;45.19;102260.28;1036545;28;693;-65
2022/03/28 04:08:30;;;;;;;;;;;;;;;16.53;45.17;102261.25;1036592;28;694;-65
2022/03/28 04:09:21;;;;;;;;;;;;;;;16.50;45.09;102260.59;1036495;28;650;-65
2022/03/28 04:10:11;;;;;;;;;;;;;;;16.49;44.86;102265.13;1036614;28;658;-66
2022/03/28 04:11:02;;;;;;;;;;;;;;;16.48;45.49;102258.00;1032684;28;632;-66
2022/03/28 04:11:52;;;;;;;;;;;;;;;16.49;45.01;102258.88;1032619;28;654;-66
2022/03/28 04:12:42;;;;;;;;;;;;;;;16.49;45.06;102253.50;1037081;28;677;-66
2022/03/28 04:13:33;;;;;;;;;;;;;;;16.48;45.01;102262.56;1036517;28;650;-65
2022/03/28 04:14:23;;;;;;;;;;;;;;;16.50;45.04;102250.69;1036513;28;681;-65
2022/03/28 04:15:14;;;;;;;;;;;;;;;16.49;45.17;102259.75;1032893;28;1405;-66
2022/03/28 04:16:04;;;;;;;;;;;;;;;16.48;44.87;102257.19;1033026;28;646;-65
2022/03/28 04:16:55;;;;;;;;;;;;;;;16.48;45.06;102257.19;1032932;28;678;-65
2022/03/28 04:17:45;;;;;;;;;;;;;;;16.49;45.33;102254.34;1032305;28;638;-65
2022/03/28 04:18:36;;;;;;;;;;;;;;;16.50;45.03;102257.91;1032934;28;595;-66
2022/03/28 04:19:26;;;;;;;;;;;;;;;16.50;45.13;102257.91;1032974;28;1889;-65
2022/03/28 04:20:17;;;;;;;;;;;;;;;16.50;44.81;102260.59;1033479;28;630;-65
2022/03/28 04:21:08;;;;;;;;;;;;;;;16.49;44.95;102259.75;1032317;28;607;-65
2022/03/28 04:21:58;;;;;;;;;;;;;;;16.50;45.05;102253.38;1033033;28;702;-65
2022/03/28 04:22:51;;;;;;;;;;;;;;;16.49;44.54;102248.09;1032991;28;646;-65
2022/03/28 04:23:41;;;;;;;;;;;;;;;16.50;45.00;102255.22;1033025;28;583;-65
2022/03/28 04:24:31;;;;;;;;;;;;;;;16.51;45.08;102256.94;1033511;28;1527;-65
2022/03/28 04:25:22;;;;;;;;;;;;;;;16.52;44.85;102253.28;1036468;28;970;-65
2022/03/28 04:26:12;;;;;;;;;;;;;;;16.52;45.00;102251.47;1036599;28;646;-65